createdAt,value
2022-09-02T00:00:34.833Z,73.80
2022-09-02T00:03:01.874Z,73.50
2022-09-02T00:05:30.135Z,73.60
2022-09-02T00:07:56.891Z,73.60
2022-09-02T00:10:23.662Z,73.40
2022-09-02T00:12:50.410Z,73.90
2022-09-02T00:15:17.187Z,73.40
2022-09-02T00:17:43.922Z,73.00
2022-09-02T00:20:10.707Z,73.40
2022-09-02T00:22:38.915Z,73.40
2022-09-02T00:25:06.955Z,73.00
2022-09-02T00:27:33.755Z,73.20
2022-09-02T00:30:00.517Z,73.40
2022-09-02T00:32:28.595Z,73.50
2022-09-02T00:34:55.334Z,73.70
2022-09-02T00:37:22.099Z,73.20
2022-09-02T00:39:50.368Z,73.40
2022-09-02T00:42:17.156Z,73.50
2022-09-02T00:44:43.954Z,74.40
2022-09-02T00:47:10.702Z,73.40
2022-09-02T00:49:41.370Z,73.20
2022-09-02T00:52:12.839Z,73.70
2022-09-02T00:54:43.885Z,73.60
2022-09-02T00:57:14.913Z,73.30
2022-09-02T00:59:46.606Z,72.90
2022-09-02T01:02:14.044Z,72.90
2022-09-02T01:04:41.339Z,72.70
2022-09-02T01:07:08.320Z,73.00
2022-09-02T01:09:35.265Z,73.10
2022-09-02T01:12:02.711Z,73.00
2022-09-02T01:14:31.223Z,73.20
2022-09-02T01:17:00.338Z,73.10
2022-09-02T01:19:32.230Z,72.90
2022-09-02T01:22:00.487Z,73.30
2022-09-02T01:24:30.186Z,73.40
2022-09-02T01:26:58.977Z,73.00
2022-09-02T01:29:27.146Z,73.10
2022-09-02T01:31:54.130Z,72.80
2022-09-02T01:34:21.026Z,72.90
2022-09-02T01:36:47.814Z,73.00
2022-09-02T01:39:16.389Z,73.40
2022-09-02T01:41:44.062Z,73.20
2022-09-02T01:44:10.924Z,73.70
2022-09-02T01:46:37.922Z,74.20
2022-09-02T01:49:04.960Z,74.10
2022-09-02T01:51:31.837Z,74.10
2022-09-02T01:53:58.622Z,74.50
2022-09-02T01:56:26.731Z,74.50
2022-09-02T01:58:53.539Z,74.70
2022-09-02T02:01:20.663Z,73.90
2022-09-02T02:03:47.853Z,73.90
2022-09-02T02:06:17.039Z,73.80
2022-09-02T02:08:44.579Z,73.20
2022-09-02T02:11:11.348Z,72.80
2022-09-02T02:13:39.453Z,73.50
2022-09-02T02:16:06.757Z,73.60
2022-09-02T02:18:33.610Z,73.30
2022-09-02T02:21:00.417Z,73.10
2022-09-02T02:23:27.140Z,72.80
2022-09-02T02:25:53.934Z,73.30
2022-09-02T02:28:20.675Z,73.60
2022-09-02T02:30:48.806Z,73.50
2022-09-02T02:33:16.034Z,73.50
2022-09-02T02:35:43.432Z,73.60
2022-09-02T02:38:10.158Z,73.00
2022-09-02T02:40:41.325Z,73.20
2022-09-02T02:43:08.154Z,73.70
2022-09-02T02:45:34.930Z,73.60
2022-09-02T02:48:03.421Z,73.50
2022-09-02T02:50:30.242Z,73.70
2022-09-02T02:52:57.139Z,73.10
2022-09-02T02:55:24.866Z,73.40
2022-09-02T02:57:51.838Z,73.70
2022-09-02T03:00:21.227Z,73.80
2022-09-02T03:02:48.378Z,73.40
2022-09-02T03:05:18.170Z,74.30
2022-09-02T03:07:44.906Z,74.30
2022-09-02T03:10:13.317Z,73.80
2022-09-02T03:12:41.068Z,73.80
2022-09-02T03:15:09.575Z,73.20
2022-09-02T03:17:36.418Z,73.30
2022-09-02T03:20:04.966Z,73.30
2022-09-02T03:22:33.215Z,73.20
2022-09-02T03:24:59.965Z,72.80
2022-09-02T03:27:26.723Z,73.20
2022-09-02T03:29:55.733Z,73.30
2022-09-02T03:32:22.462Z,73.10
2022-09-02T03:34:53.069Z,72.80
2022-09-02T03:37:19.967Z,73.40
2022-09-02T03:39:48.043Z,74.00
2022-09-02T03:42:19.544Z,73.80
2022-09-02T03:44:46.891Z,74.00
2022-09-02T03:47:13.622Z,73.40
2022-09-02T03:49:40.701Z,73.10
2022-09-02T03:52:10.496Z,72.90
2022-09-02T03:54:37.225Z,74.20
2022-09-02T03:57:06.039Z,73.00
2022-09-02T03:59:32.783Z,72.90
2022-09-02T04:02:01.548Z,72.70
2022-09-02T04:04:28.863Z,72.90
2022-09-02T04:06:56.030Z,73.70
2022-09-02T04:09:22.767Z,74.70
2022-09-02T04:11:49.547Z,74.40
2022-09-02T04:14:17.725Z,74.60
2022-09-02T04:16:44.769Z,74.20
2022-09-02T04:19:11.510Z,74.60
2022-09-02T04:21:39.562Z,74.50
2022-09-02T04:24:07.921Z,74.50
2022-09-02T04:26:35.246Z,74.80
2022-09-02T04:29:02.381Z,74.60
2022-09-02T04:31:30.954Z,74.90
2022-09-02T04:33:58.402Z,74.70
2022-09-02T04:36:26.266Z,74.90
2022-09-02T04:38:58.801Z,74.60
2022-09-02T04:41:28.166Z,74.90
2022-09-02T04:43:56.075Z,74.80
2022-09-02T04:46:29.694Z,75.00
2022-09-02T04:49:03.285Z,75.40
2022-09-02T04:51:30.257Z,75.60
2022-09-02T04:53:57.254Z,75.80
2022-09-02T04:56:26.699Z,76.50
2022-09-02T04:58:53.928Z,76.10
2022-09-02T05:01:23.271Z,75.80
2022-09-02T05:03:50.313Z,75.50
2022-09-02T05:06:20.477Z,75.40
2022-09-02T05:08:47.351Z,75.50
2022-09-02T05:11:16.642Z,75.90
2022-09-02T05:13:43.358Z,76.40
2022-09-02T05:16:10.167Z,78.40
2022-09-02T05:18:36.929Z,77.90
2022-09-02T05:21:05.357Z,77.80
2022-09-02T05:23:33.848Z,77.40
2022-09-02T05:26:03.722Z,77.50
2022-09-02T05:28:30.440Z,77.90
2022-09-02T05:31:04.017Z,77.60
2022-09-02T05:33:30.990Z,77.90
2022-09-02T05:35:57.872Z,77.80
2022-09-02T05:38:24.609Z,77.60
2022-09-02T05:40:52.732Z,77.40
2022-09-02T05:43:19.534Z,77.70
2022-09-02T05:45:46.288Z,77.80
2022-09-02T05:48:13.049Z,78.50
2022-09-02T05:50:39.801Z,77.50
2022-09-02T05:53:08.958Z,77.50
2022-09-02T05:55:39.168Z,77.80
2022-09-02T05:58:07.879Z,77.60
2022-09-02T06:00:34.620Z,77.40
2022-09-02T06:03:01.384Z,78.20
2022-09-02T06:05:28.218Z,77.80
2022-09-02T06:07:54.937Z,78.00
2022-09-02T06:10:21.678Z,78.20
2022-09-02T06:12:48.437Z,78.70
2022-09-02T06:15:16.658Z,79.00
2022-09-02T06:17:43.385Z,79.30
2022-09-02T06:20:11.314Z,80.10
2022-09-02T06:22:38.753Z,79.50
2022-09-02T06:25:06.246Z,78.90
2022-09-02T06:27:32.963Z,79.30
2022-09-02T06:29:59.720Z,80.00
2022-09-02T06:32:27.781Z,79.50
2022-09-02T06:34:54.544Z,79.60
2022-09-02T06:37:21.301Z,79.10
2022-09-02T06:39:48.046Z,80.20
2022-09-02T06:42:14.759Z,78.70
2022-09-02T06:44:41.499Z,78.70
2022-09-02T06:47:08.265Z,77.60
2022-09-02T06:49:36.324Z,77.20
2022-09-02T06:52:03.592Z,76.10
2022-09-02T06:54:30.373Z,75.30
2022-09-02T06:56:57.127Z,75.10
2022-09-02T06:59:23.894Z,75.70
2022-09-02T07:01:51.185Z,74.70
2022-09-02T07:04:18.237Z,74.90
2022-09-02T07:06:49.453Z,74.40
2022-09-02T07:09:19.430Z,74.40
2022-09-02T07:11:46.813Z,74.30
2022-09-02T07:14:14.445Z,74.10
2022-09-02T07:16:44.274Z,74.10
2022-09-02T07:19:16.106Z,74.00
2022-09-02T07:21:46.796Z,74.80
2022-09-02T07:24:14.326Z,74.10
2022-09-02T07:26:41.793Z,74.00
2022-09-02T07:29:09.370Z,74.00
2022-09-02T07:31:38.075Z,74.00
2022-09-02T07:34:05.779Z,74.00
2022-09-02T07:36:32.785Z,73.80
2022-09-02T07:39:00.847Z,74.00
2022-09-02T07:41:27.872Z,74.10
2022-09-02T07:43:59.420Z,74.80
2022-09-02T07:46:27.113Z,74.00
2022-09-02T07:48:53.897Z,74.00
2022-09-02T07:51:20.634Z,74.00
2022-09-02T07:53:47.602Z,73.80
2022-09-02T07:56:15.691Z,73.80
2022-09-02T07:58:43.860Z,73.80
2022-09-02T08:01:11.145Z,73.70
2022-09-02T08:03:40.763Z,73.70
2022-09-02T08:06:08.291Z,73.50
2022-09-02T08:08:35.009Z,73.60
2022-09-02T08:13:36.188Z,73.40
2022-09-02T08:16:03.387Z,73.40
2022-09-02T08:18:32.312Z,73.40
2022-09-02T08:20:59.080Z,73.40
2022-09-02T08:23:36.606Z,73.30
2022-09-02T08:26:04.409Z,73.30
2022-09-02T08:28:31.136Z,73.30
2022-09-02T08:30:59.334Z,73.40
2022-09-02T08:33:26.451Z,73.60
2022-09-02T08:35:53.218Z,73.30
2022-09-02T08:38:20.043Z,73.10
2022-09-02T08:40:46.864Z,73.20
2022-09-02T08:43:27.906Z,73.20
2022-09-02T08:45:56.804Z,72.90
2022-09-02T08:48:34.317Z,73.00
2022-09-02T08:51:03.863Z,72.90
2022-09-02T08:53:35.196Z,72.70
2022-09-02T08:56:05.196Z,72.80
2022-09-02T08:58:38.822Z,72.50
2022-09-02T09:01:12.910Z,72.50
2022-09-02T09:03:43.262Z,72.70
2022-09-02T09:06:19.135Z,72.70
2022-09-02T09:08:52.795Z,72.60
2022-09-02T09:11:28.603Z,72.60
2022-09-02T09:14:17.929Z,72.50
2022-09-02T09:16:53.599Z,72.50
2022-09-02T09:19:34.371Z,72.60
2022-09-02T09:22:01.347Z,72.30
2022-09-02T09:24:35.031Z,72.10
2022-09-02T09:27:04.267Z,72.10
2022-09-02T09:29:32.801Z,72.10
2022-09-02T09:32:00.983Z,72.10
2022-09-02T09:34:57.077Z,72.10
2022-09-02T09:37:33.902Z,72.10
2022-09-02T09:40:25.453Z,72.10
2022-09-02T09:42:55.865Z,72.00
2022-09-02T09:45:31.350Z,72.00
2022-09-02T09:48:21.727Z,72.00
2022-09-02T09:51:10.584Z,72.00
2022-09-02T09:53:37.850Z,72.00
2022-09-02T09:56:06.494Z,71.50
2022-09-02T09:58:35.540Z,71.70
2022-09-02T10:01:11.687Z,71.90
2022-09-02T10:03:42.834Z,71.40
2022-09-02T10:06:20.869Z,71.80
2022-09-02T10:08:53.206Z,71.90
2022-09-02T10:11:23.675Z,72.10
2022-09-02T10:13:50.520Z,71.40
2022-09-02T10:16:31.421Z,71.90
2022-09-02T10:19:05.620Z,72.20
2022-09-02T10:21:45.124Z,72.00
2022-09-02T10:24:26.852Z,72.40
2022-09-02T10:26:57.761Z,72.50
2022-09-02T10:29:49.263Z,72.70
2022-09-02T10:32:56.423Z,72.50
2022-09-02T10:35:33.461Z,72.60
2022-09-02T10:38:11.070Z,72.60
2022-09-02T10:40:44.403Z,72.60
2022-09-02T10:43:25.844Z,72.40
2022-09-02T10:45:57.890Z,72.30
2022-09-02T10:48:40.493Z,72.50
2022-09-02T10:51:15.279Z,72.60
2022-09-02T10:53:59.154Z,72.60
2022-09-02T10:56:31.078Z,72.60
2022-09-02T10:59:04.735Z,73.30
2022-09-02T11:01:35.239Z,72.50
2022-09-02T11:04:08.514Z,72.00
2022-09-02T11:06:58.815Z,72.20
2022-09-02T11:09:32.789Z,72.30
2022-09-02T11:12:06.797Z,72.60
2022-09-02T11:14:37.233Z,72.40
2022-09-02T11:17:13.168Z,70.40
2022-09-02T11:19:43.900Z,71.90
2022-09-02T11:22:24.178Z,72.00
2022-09-02T11:25:00.732Z,71.30
2022-09-02T11:27:42.108Z,71.60
2022-09-02T11:30:13.228Z,71.80
2022-09-02T11:32:45.564Z,71.90
2022-09-02T11:35:18.173Z,71.90
2022-09-02T11:37:49.648Z,72.00
2022-09-02T11:40:34.200Z,71.60
2022-09-02T11:43:23.355Z,71.80
2022-09-02T11:46:06.903Z,71.10
2022-09-02T11:48:57.137Z,71.10
2022-09-02T11:51:44.586Z,71.30
2022-09-02T11:54:15.670Z,71.40
2022-09-02T11:56:47.134Z,71.20
2022-09-02T11:59:20.892Z,71.30
2022-09-02T12:01:51.217Z,71.00
2022-09-02T12:07:26.840Z,69.60
2022-09-02T12:09:59.483Z,70.20
2022-09-02T12:13:03.722Z,70.60
2022-09-02T12:15:35.574Z,70.70
2022-09-02T12:18:26.288Z,70.80
2022-09-02T12:21:16.017Z,70.70
2022-09-02T12:24:09.167Z,69.40
2022-09-02T12:27:06.120Z,69.00
2022-09-02T12:29:34.869Z,69.40
2022-09-02T12:32:01.970Z,67.40
2022-09-02T12:34:53.952Z,68.40
2022-09-02T12:37:51.730Z,68.90
2022-09-02T12:40:31.358Z,69.20
2022-09-02T12:43:03.744Z,69.40
2022-09-02T12:45:33.998Z,69.40
2022-09-02T12:48:08.037Z,69.20
2022-09-02T12:50:53.858Z,69.20
2022-09-02T12:53:35.414Z,67.60
2022-09-02T12:56:04.978Z,68.40
2022-09-02T12:58:35.524Z,68.40
2022-09-02T13:01:13.181Z,68.40
2022-09-02T13:03:56.923Z,67.40
2022-09-02T13:06:34.382Z,67.80
2022-09-02T13:09:33.116Z,66.30
2022-09-02T13:12:31.398Z,66.70
2022-09-02T13:15:23.137Z,66.90
2022-09-02T13:18:25.915Z,66.20
2022-09-02T13:21:20.206Z,66.70
2022-09-02T13:24:11.039Z,66.80
2022-09-02T13:26:54.647Z,66.90
2022-09-02T13:29:50.009Z,66.70
2022-09-02T13:32:23.115Z,66.20
2022-09-02T13:34:53.173Z,66.20
2022-09-02T13:37:36.790Z,66.50
2022-09-02T13:40:07.371Z,66.30
2022-09-02T13:42:34.190Z,66.20
2022-09-02T13:45:14.881Z,65.80
2022-09-02T13:47:43.819Z,65.10
2022-09-02T13:50:14.614Z,65.20
2022-09-02T13:53:49.158Z,65.10
2022-09-02T13:55:30.694Z,65.00
2022-09-02T13:58:00.256Z,65.30
2022-09-02T14:00:33.297Z,65.10
2022-09-02T14:03:03.589Z,65.30
2022-09-02T14:05:33.934Z,65.40
2022-09-02T14:08:02.992Z,65.60
2022-09-02T14:10:31.415Z,65.60
2022-09-02T14:13:01.527Z,65.30
2022-09-02T14:15:30.175Z,65.50
2022-09-02T14:18:18.066Z,65.60
2022-09-02T14:21:03.954Z,65.90
2022-09-02T14:23:32.589Z,65.80
2022-09-02T14:26:00.971Z,65.70
2022-09-02T14:28:31.066Z,65.30
2022-09-02T14:31:00.881Z,65.50
2022-09-02T14:33:40.794Z,65.60
2022-09-02T14:36:12.619Z,65.50
2022-09-02T14:38:51.396Z,65.20
2022-09-02T14:41:22.763Z,64.90
2022-09-02T14:43:51.719Z,64.80
2022-09-02T14:46:27.970Z,64.70
2022-09-02T14:49:00.717Z,64.80
2022-09-02T14:51:35.046Z,64.80
2022-09-02T14:54:03.040Z,63.80
2022-09-02T14:56:48.363Z,65.40
2022-09-02T14:59:16.863Z,64.10
2022-09-02T15:01:47.714Z,64.20
2022-09-02T15:04:16.734Z,64.20
2022-09-02T15:06:46.335Z,64.20
2022-09-02T15:09:16.589Z,64.10
2022-09-02T15:11:48.031Z,64.10
2022-09-02T15:14:16.388Z,64.10
2022-09-02T15:16:43.531Z,64.10
2022-09-02T15:19:10.806Z,64.00
2022-09-02T15:21:37.931Z,64.00
2022-09-02T15:24:07.752Z,64.00
2022-09-02T15:26:35.042Z,63.60
2022-09-02T15:29:02.314Z,63.30
2022-09-02T15:31:30.095Z,63.30
2022-09-02T15:33:57.531Z,63.30
2022-09-02T15:36:24.793Z,63.00
2022-09-02T15:38:51.944Z,63.00
2022-09-02T15:41:22.169Z,63.00
2022-09-02T15:43:51.355Z,62.80
2022-09-02T15:46:25.731Z,62.70
2022-09-02T15:48:55.285Z,62.70
2022-09-02T15:51:24.865Z,62.70
2022-09-02T15:53:56.436Z,62.60
2022-09-02T15:56:26.641Z,62.20
2022-09-02T15:58:58.684Z,62.40
2022-09-02T16:01:26.921Z,62.00
2022-09-02T16:03:54.583Z,62.10
2022-09-02T16:06:21.987Z,61.80
2022-09-02T16:08:49.340Z,61.60
2022-09-02T16:11:16.947Z,61.60
2022-09-02T16:13:45.584Z,61.50
2022-09-02T16:16:13.292Z,61.50
2022-09-02T16:18:41.568Z,62.20
2022-09-02T16:21:10.604Z,61.20
2022-09-02T16:23:37.773Z,61.20
2022-09-02T16:26:09.963Z,61.10
2022-09-02T16:28:37.621Z,61.20
2022-09-02T16:31:07.865Z,61.20
2022-09-02T16:33:35.870Z,61.10
2022-09-02T16:36:03.501Z,61.00
2022-09-02T16:38:30.613Z,61.10
2022-09-02T16:40:57.933Z,60.90
2022-09-02T16:43:25.442Z,61.00
2022-09-02T16:45:52.778Z,60.90
2022-09-02T16:48:25.666Z,61.20
2022-09-02T16:50:52.652Z,61.00
2022-09-02T16:53:19.389Z,61.10
2022-09-02T16:55:46.724Z,61.20
2022-09-02T16:58:14.002Z,61.20
2022-09-02T17:00:41.430Z,61.20
2022-09-02T17:03:09.824Z,61.30
2022-09-02T17:05:38.262Z,61.30
2022-09-02T17:08:05.565Z,61.20
2022-09-02T17:10:33.837Z,61.40
2022-09-02T17:13:00.816Z,61.30
2022-09-02T17:15:28.970Z,61.60
2022-09-02T17:17:56.541Z,61.50
2022-09-02T17:20:24.049Z,61.70
2022-09-02T17:22:52.121Z,62.70
2022-09-02T17:25:19.159Z,60.90
2022-09-02T17:27:45.924Z,60.70
2022-09-02T17:30:13.044Z,60.80
2022-09-02T17:32:40.721Z,60.80
2022-09-02T17:35:09.429Z,60.00
2022-09-02T17:37:36.608Z,60.20
2022-09-02T17:40:12.936Z,59.70
2022-09-02T17:42:39.852Z,59.60
2022-09-02T17:45:07.241Z,59.60
2022-09-02T17:47:33.982Z,59.60
2022-09-02T17:50:00.730Z,59.60
2022-09-02T17:52:27.511Z,59.50
2022-09-02T17:54:54.280Z,59.40
2022-09-02T17:57:41.783Z,59.40
2022-09-02T18:00:11.293Z,59.20
2022-09-02T18:03:31.835Z,59.30
2022-09-02T18:06:07.000Z,59.40
2022-09-02T18:08:39.419Z,59.30
2022-09-02T18:11:06.577Z,59.40
2022-09-02T18:13:43.736Z,59.30
2022-09-02T18:16:30.580Z,59.30
2022-09-02T18:19:13.128Z,59.30
2022-09-02T18:21:52.806Z,60.30
2022-09-02T18:24:32.711Z,60.20
2022-09-02T18:27:10.152Z,61.50
2022-09-02T18:29:54.470Z,60.50
2022-09-02T18:32:38.284Z,60.70
2022-09-02T18:35:15.739Z,60.40
2022-09-02T18:37:50.953Z,61.30
2022-09-02T18:40:27.557Z,61.50
2022-09-02T18:43:04.213Z,61.70
2022-09-02T18:45:35.167Z,61.80
2022-09-02T18:48:06.422Z,62.00
2022-09-02T18:50:52.468Z,62.50
2022-09-02T18:53:22.512Z,62.80
2022-09-02T18:55:51.087Z,62.50
2022-09-02T18:58:30.320Z,62.60
2022-09-02T19:01:02.596Z,62.30
2022-09-02T19:03:34.967Z,61.80
2022-09-02T19:06:04.728Z,61.70
2022-09-02T19:08:32.892Z,61.50
2022-09-02T19:11:02.388Z,61.30
2022-09-02T19:13:30.726Z,62.20
2022-09-02T19:16:02.720Z,61.20
2022-09-02T19:18:31.504Z,61.40
2022-09-02T19:20:58.682Z,62.60
2022-09-02T19:23:26.338Z,62.90
2022-09-02T19:25:53.469Z,63.60
2022-09-02T19:28:22.018Z,64.10
2022-09-02T19:30:50.644Z,65.30
2022-09-02T19:33:18.777Z,64.60
2022-09-02T19:35:49.412Z,64.60
2022-09-02T19:38:16.317Z,64.40
2022-09-02T19:40:44.617Z,64.70
2022-09-02T19:43:16.177Z,64.60
2022-09-02T19:45:45.072Z,64.20
2022-09-02T19:48:16.417Z,64.10
2022-09-02T19:50:47.449Z,64.10
2022-09-02T19:53:19.609Z,63.80
2022-09-02T19:55:47.004Z,63.60
2022-09-02T19:58:14.882Z,63.30
2022-09-02T20:00:42.879Z,63.50
2022-09-02T20:03:10.313Z,64.10
2022-09-02T20:05:38.623Z,64.30
2022-09-02T20:08:07.409Z,64.80
2022-09-02T20:10:34.175Z,64.90
2022-09-02T20:13:00.903Z,65.10
2022-09-02T20:15:27.709Z,65.10
2022-09-02T20:18:03.685Z,65.50
2022-09-02T20:20:30.773Z,65.30
2022-09-02T20:22:57.628Z,65.20
2022-09-02T20:25:31.556Z,65.20
2022-09-02T20:28:07.603Z,65.00
2022-09-02T20:30:37.982Z,66.10
2022-09-02T20:33:14.406Z,65.80
2022-09-02T20:36:07.453Z,65.80
2022-09-02T20:38:54.069Z,65.90
2022-09-02T20:41:32.515Z,65.40
2022-09-02T20:44:33.098Z,65.20
2022-09-02T20:47:16.733Z,64.90
2022-09-02T20:49:59.970Z,65.70
2022-09-02T20:52:40.354Z,65.90
2022-09-02T20:55:15.720Z,65.60
2022-09-02T20:57:58.384Z,66.10
2022-09-02T21:00:25.152Z,66.30
2022-09-02T21:02:59.553Z,66.30
2022-09-02T21:05:29.088Z,65.70
2022-09-02T21:08:01.554Z,65.60
2022-09-02T21:10:34.577Z,65.80
2022-09-02T21:13:10.001Z,66.50
2022-09-02T21:15:41.670Z,66.60
2022-09-02T21:18:14.070Z,66.50
2022-09-02T21:20:43.689Z,66.50
2022-09-02T21:23:17.658Z,66.30
2022-09-02T21:25:50.426Z,66.10
2022-09-02T21:28:23.263Z,65.80
2022-09-02T21:30:57.575Z,65.90
2022-09-02T21:33:27.959Z,65.60
2022-09-02T21:35:58.017Z,66.30
2022-09-02T21:38:33.011Z,66.70
2022-09-02T21:41:15.646Z,66.30
2022-09-02T21:43:55.793Z,66.50
2022-09-02T21:46:30.280Z,66.60
2022-09-02T21:48:58.574Z,66.50
2022-09-02T21:51:31.690Z,66.30
2022-09-02T21:54:18.114Z,67.40
2022-09-02T21:57:00.595Z,66.90
2022-09-02T21:59:44.702Z,66.90
2022-09-02T22:02:16.731Z,67.50
2022-09-02T22:04:54.045Z,67.20
2022-09-02T22:10:52.716Z,67.80
2022-09-02T22:13:22.607Z,67.60
2022-09-02T22:15:56.836Z,66.80
2022-09-02T22:18:35.590Z,66.70
2022-09-02T22:21:09.953Z,67.10
2022-09-02T22:23:36.769Z,67.20
2022-09-02T22:26:16.079Z,67.20
2022-09-02T22:28:46.377Z,67.60
2022-09-02T22:31:18.546Z,67.70
2022-09-02T22:33:49.660Z,67.40
2022-09-02T22:36:31.558Z,67.70
2022-09-02T22:38:58.321Z,67.30
2022-09-02T22:41:30.505Z,67.30
2022-09-02T22:44:03.907Z,67.40
2022-09-02T22:46:45.238Z,66.80
2022-09-02T22:49:16.851Z,67.10
2022-09-02T22:51:50.161Z,67.50
2022-09-02T22:54:16.980Z,67.40
2022-09-02T22:56:56.401Z,67.20
2022-09-02T22:59:33.708Z,67.40
2022-09-02T23:02:09.290Z,67.10
2022-09-02T23:04:50.980Z,67.40
2022-09-02T23:07:17.748Z,67.40
2022-09-02T23:09:46.454Z,67.50
2022-09-02T23:12:24.065Z,67.70
2022-09-02T23:14:57.490Z,67.40
2022-09-02T23:17:39.890Z,67.30
2022-09-02T23:20:14.008Z,67.40
2022-09-02T23:22:49.099Z,68.30
2022-09-02T23:25:39.135Z,67.60
2022-09-02T23:28:14.261Z,67.60
2022-09-02T23:30:52.216Z,67.50
2022-09-02T23:33:33.863Z,67.40
2022-09-02T23:36:07.645Z,67.40
2022-09-02T23:38:54.868Z,67.90
2022-09-02T23:41:21.687Z,67.70
2022-09-02T23:43:48.713Z,67.40
2022-09-02T23:46:27.605Z,67.70
2022-09-02T23:49:05.985Z,68.30
2022-09-02T23:51:42.050Z,68.40
2022-09-02T23:54:25.782Z,68.00
2022-09-02T23:57:07.221Z,67.90
